createdAt,value
2023-02-17T00:01:22.008Z,79.37
2023-02-17T00:03:24.815Z,79.33
2023-02-17T00:05:27.613Z,80.21
2023-02-17T00:07:30.750Z,79.61
2023-02-17T00:09:33.910Z,79.48
2023-02-17T00:11:37.074Z,79.62
2023-02-17T00:13:39.312Z,79.61
2023-02-17T00:15:41.080Z,79.46
2023-02-17T00:17:42.642Z,79.37
2023-02-17T00:19:44.416Z,79.48
2023-02-17T00:21:46.092Z,79.22
2023-02-17T00:23:49.078Z,78.89
2023-02-17T00:25:52.096Z,79.41
2023-02-17T00:27:53.787Z,79.15
2023-02-17T00:29:55.694Z,79.46
2023-02-17T00:31:57.554Z,78.62
2023-02-17T00:33:59.238Z,78.69
2023-02-17T00:36:04.291Z,78.82
2023-02-17T00:38:06.017Z,78.80
2023-02-17T00:40:08.613Z,79.01
2023-02-17T00:42:11.631Z,79.09
2023-02-17T00:44:16.651Z,79.28
2023-02-17T00:46:18.695Z,78.43
2023-02-17T00:48:20.264Z,78.60
2023-02-17T00:50:22.099Z,78.97
2023-02-17T00:52:23.821Z,79.31
2023-02-17T00:54:25.523Z,79.02
2023-02-17T00:56:27.129Z,79.11
2023-02-17T00:58:30.127Z,79.36
2023-02-17T01:00:31.946Z,78.88
2023-02-17T01:02:33.564Z,78.79
2023-02-17T01:04:35.153Z,79.65
2023-02-17T01:06:38.413Z,79.63
2023-02-17T01:08:40.099Z,79.27
2023-02-17T01:10:44.289Z,79.43
2023-02-17T01:12:45.834Z,79.44
2023-02-17T01:14:49.219Z,79.56
2023-02-17T01:16:50.756Z,79.29
2023-02-17T01:18:53.000Z,79.08
2023-02-17T01:20:54.842Z,79.26
2023-02-17T01:22:56.465Z,79.59
2023-02-17T01:24:58.207Z,79.69
2023-02-17T01:26:59.881Z,79.70
2023-02-17T01:29:03.018Z,79.39
2023-02-17T01:31:07.545Z,79.05
2023-02-17T01:33:09.602Z,79.22
2023-02-17T01:35:11.462Z,79.51
2023-02-17T01:37:13.182Z,79.08
2023-02-17T01:39:15.999Z,79.25
2023-02-17T01:41:20.671Z,79.71
2023-02-17T01:43:22.353Z,79.07
2023-02-17T01:45:36.541Z,79.57
2023-02-17T01:47:39.973Z,80.11
2023-02-17T01:49:41.975Z,79.84
2023-02-17T01:51:46.951Z,80.03
2023-02-17T01:53:55.365Z,79.82
2023-02-17T01:55:57.388Z,79.48
2023-02-17T01:58:01.589Z,79.50
2023-02-17T02:00:04.283Z,80.22
2023-02-17T02:02:07.206Z,80.66
2023-02-17T02:04:12.107Z,80.76
2023-02-17T02:06:16.894Z,80.52
2023-02-17T02:08:18.653Z,80.66
2023-02-17T02:10:20.477Z,80.85
2023-02-17T02:12:25.609Z,81.06
2023-02-17T02:14:28.237Z,80.55
2023-02-17T02:16:38.606Z,80.55
2023-02-17T02:18:51.881Z,80.95
2023-02-17T02:21:41.352Z,80.26
2023-02-17T02:23:56.407Z,80.76
2023-02-17T02:26:31.880Z,80.36
2023-02-17T02:28:53.683Z,80.55
2023-02-17T02:31:19.049Z,80.46
2023-02-17T02:33:32.159Z,80.16
2023-02-17T02:35:45.698Z,80.94
2023-02-17T02:37:53.752Z,81.07
2023-02-17T02:39:57.461Z,81.93
2023-02-17T02:42:03.901Z,81.15
2023-02-17T02:44:06.982Z,81.41
2023-02-17T02:46:09.249Z,81.12
2023-02-17T02:48:11.519Z,81.20
2023-02-17T02:50:19.629Z,81.60
2023-02-17T02:52:30.089Z,81.60
2023-02-17T02:54:49.358Z,81.40
2023-02-17T02:57:04.422Z,81.12
2023-02-17T02:59:19.063Z,81.94
2023-02-17T03:01:31.533Z,81.13
2023-02-17T03:03:42.213Z,81.50
2023-02-17T03:05:55.550Z,81.51
2023-02-17T03:08:02.257Z,82.45
2023-02-17T03:10:05.822Z,82.10
2023-02-17T03:12:07.883Z,81.80
2023-02-17T03:14:12.198Z,81.62
2023-02-17T03:16:13.855Z,81.72
2023-02-17T03:18:15.527Z,81.73
2023-02-17T03:20:17.737Z,82.00
2023-02-17T03:22:25.704Z,82.33
2023-02-17T03:24:27.742Z,82.16
2023-02-17T03:26:29.343Z,82.17
2023-02-17T03:28:31.149Z,82.02
2023-02-17T03:30:33.096Z,82.26
2023-02-17T03:32:35.194Z,82.57
2023-02-17T03:34:36.840Z,82.30
2023-02-17T03:36:38.663Z,82.00
2023-02-17T03:38:41.642Z,82.10
2023-02-17T03:40:43.382Z,82.09
2023-02-17T03:42:44.951Z,82.32
2023-02-17T03:44:46.543Z,82.68
2023-02-17T03:46:48.241Z,82.73
2023-02-17T03:48:49.939Z,82.74
2023-02-17T03:50:51.617Z,82.66
2023-02-17T03:52:53.290Z,83.04
2023-02-17T03:54:56.373Z,82.52
2023-02-17T03:56:58.039Z,82.86
2023-02-17T03:58:59.826Z,82.72
2023-02-17T04:01:01.914Z,82.50
2023-02-17T04:03:03.723Z,82.06
2023-02-17T04:05:05.910Z,82.83
2023-02-17T04:07:07.576Z,82.43
2023-02-17T04:09:09.172Z,82.24
2023-02-17T04:11:12.648Z,82.46
2023-02-17T04:13:14.207Z,82.40
2023-02-17T04:15:15.846Z,82.64
2023-02-17T04:17:17.440Z,82.86
2023-02-17T04:19:21.148Z,82.58
2023-02-17T04:21:22.956Z,82.39
2023-02-17T04:23:24.603Z,82.61
2023-02-17T04:25:26.316Z,82.19
2023-02-17T04:27:29.340Z,82.75
2023-02-17T04:29:31.891Z,82.16
2023-02-17T04:31:33.940Z,82.92
2023-02-17T04:33:35.697Z,82.40
2023-02-17T04:35:37.496Z,82.64
2023-02-17T04:37:39.131Z,82.87
2023-02-17T04:39:40.709Z,82.87
2023-02-17T04:41:42.338Z,82.56
2023-02-17T04:43:45.497Z,82.51
2023-02-17T04:45:47.179Z,82.83
2023-02-17T04:47:48.960Z,82.98
2023-02-17T04:49:50.627Z,82.72
2023-02-17T04:51:52.234Z,82.59
2023-02-17T04:53:53.921Z,82.95
2023-02-17T04:55:55.702Z,83.42
2023-02-17T04:57:57.520Z,82.94
2023-02-17T05:00:00.632Z,83.18
2023-02-17T05:02:02.336Z,83.26
2023-02-17T05:04:04.233Z,82.77
2023-02-17T05:06:06.880Z,83.29
2023-02-17T05:08:08.711Z,83.36
2023-02-17T05:10:11.741Z,83.15
2023-02-17T05:12:13.349Z,83.36
2023-02-17T05:14:15.365Z,82.81
2023-02-17T05:16:18.337Z,83.19
2023-02-17T05:18:20.144Z,82.77
2023-02-17T05:20:21.907Z,83.31
2023-02-17T05:22:23.618Z,83.03
2023-02-17T05:24:25.142Z,82.81
2023-02-17T05:26:27.227Z,83.10
2023-02-17T05:28:28.776Z,83.29
2023-02-17T05:30:30.420Z,83.37
2023-02-17T05:32:33.374Z,83.43
2023-02-17T05:34:36.387Z,83.11
2023-02-17T05:36:38.261Z,83.44
2023-02-17T05:38:40.517Z,83.88
2023-02-17T05:40:42.202Z,84.00
2023-02-17T05:42:43.979Z,84.28
2023-02-17T05:44:45.510Z,84.20
2023-02-17T05:46:47.925Z,84.53
2023-02-17T05:48:50.868Z,84.39
2023-02-17T05:50:52.623Z,84.45
2023-02-17T05:52:54.289Z,84.55
2023-02-17T05:54:56.224Z,84.36
2023-02-17T05:56:58.052Z,84.52
2023-02-17T05:58:59.664Z,84.64
2023-02-17T06:01:01.490Z,83.86
2023-02-17T06:03:03.096Z,84.25
2023-02-17T06:05:07.274Z,84.38
2023-02-17T06:07:09.193Z,85.26
2023-02-17T06:09:10.753Z,85.07
2023-02-17T06:11:12.332Z,84.35
2023-02-17T06:13:14.457Z,84.54
2023-02-17T06:15:16.504Z,84.99
2023-02-17T06:17:18.094Z,84.87
2023-02-17T06:19:20.239Z,84.53
2023-02-17T06:21:23.591Z,84.48
2023-02-17T06:23:25.845Z,85.30
2023-02-17T06:25:27.385Z,85.21
2023-02-17T06:27:29.320Z,84.89
2023-02-17T06:29:31.334Z,84.53
2023-02-17T06:31:33.724Z,85.14
2023-02-17T06:33:36.604Z,84.40
2023-02-17T06:35:38.256Z,85.19
2023-02-17T06:37:41.389Z,84.68
2023-02-17T06:39:43.091Z,84.76
2023-02-17T06:41:44.746Z,84.86
2023-02-17T06:43:46.425Z,84.87
2023-02-17T06:45:48.096Z,84.75
2023-02-17T06:47:49.673Z,84.71
2023-02-17T06:49:51.244Z,85.37
2023-02-17T06:51:52.922Z,85.61
2023-02-17T06:53:56.271Z,85.43
2023-02-17T06:55:57.898Z,85.24
2023-02-17T06:57:59.487Z,85.04
2023-02-17T07:00:01.340Z,85.03
2023-02-17T07:02:03.004Z,85.20
2023-02-17T07:04:05.129Z,85.44
2023-02-17T07:06:06.984Z,85.55
2023-02-17T07:08:08.972Z,85.38
2023-02-17T07:10:12.412Z,85.04
2023-02-17T07:12:14.243Z,85.68
2023-02-17T07:14:16.078Z,86.03
2023-02-17T07:16:17.743Z,85.66
2023-02-17T07:18:19.356Z,85.36
2023-02-17T07:20:21.277Z,85.96
2023-02-17T07:22:22.891Z,85.94
2023-02-17T07:24:24.672Z,85.71
2023-02-17T07:26:27.641Z,86.08
2023-02-17T07:28:29.595Z,86.16
2023-02-17T07:30:31.215Z,86.55
2023-02-17T07:32:33.198Z,86.31
2023-02-17T07:34:34.980Z,86.08
2023-02-17T07:36:36.563Z,86.63
2023-02-17T07:38:39.004Z,86.58
2023-02-17T07:40:40.617Z,86.90
2023-02-17T07:42:43.601Z,86.63
2023-02-17T07:44:45.152Z,86.37
2023-02-17T07:46:46.856Z,86.22
2023-02-17T07:48:48.481Z,86.57
2023-02-17T07:50:50.011Z,86.87
2023-02-17T07:52:51.586Z,87.02
2023-02-17T07:54:53.129Z,86.68
2023-02-17T07:56:54.870Z,87.10
2023-02-17T07:58:57.766Z,86.91
2023-02-17T08:01:04.756Z,86.91
2023-02-17T08:03:06.474Z,87.32
2023-02-17T08:05:08.130Z,86.81
2023-02-17T08:07:10.170Z,87.10
2023-02-17T08:09:12.520Z,86.87
2023-02-17T08:11:16.802Z,87.74
2023-02-17T08:13:18.380Z,87.23
2023-02-17T08:15:21.584Z,86.99
2023-02-17T08:17:23.467Z,87.11
2023-02-17T08:19:27.183Z,87.32
2023-02-17T08:21:31.719Z,87.39
2023-02-17T08:23:33.646Z,86.70
2023-02-17T08:25:35.823Z,87.10
2023-02-17T08:27:37.392Z,87.11
2023-02-17T08:29:38.993Z,87.65
2023-02-17T08:31:42.848Z,87.46
2023-02-17T08:33:44.472Z,87.82
2023-02-17T08:35:46.033Z,87.24
2023-02-17T08:37:47.860Z,88.01
2023-02-17T08:39:49.697Z,88.01
2023-02-17T08:41:51.300Z,87.93
2023-02-17T08:43:52.854Z,87.39
2023-02-17T08:45:54.498Z,87.61
2023-02-17T08:47:57.525Z,87.33
2023-02-17T08:49:59.363Z,87.49
2023-02-17T08:52:00.971Z,88.21
2023-02-17T08:54:04.627Z,88.00
2023-02-17T08:56:06.987Z,87.81
2023-02-17T08:58:08.855Z,87.16
2023-02-17T09:00:11.593Z,87.20
2023-02-17T09:02:13.200Z,86.84
2023-02-17T09:04:16.928Z,87.17
2023-02-17T09:06:19.573Z,87.03
2023-02-17T09:08:21.984Z,86.89
2023-02-17T09:10:23.661Z,87.33
2023-02-17T09:12:25.351Z,87.30
2023-02-17T09:14:27.196Z,87.11
2023-02-17T09:16:28.800Z,87.35
2023-02-17T09:18:30.375Z,87.40
2023-02-17T09:20:33.325Z,87.24
2023-02-17T09:22:35.120Z,86.12
2023-02-17T09:24:37.273Z,87.13
2023-02-17T09:26:38.838Z,87.38
2023-02-17T09:28:40.408Z,87.42
2023-02-17T09:30:42.976Z,87.17
2023-02-17T09:32:44.951Z,87.79
2023-02-17T09:34:46.850Z,87.35
2023-02-17T09:36:50.077Z,87.24
2023-02-17T09:38:52.777Z,87.35
2023-02-17T09:40:54.877Z,86.97
2023-02-17T09:42:56.530Z,87.42
2023-02-17T09:45:01.772Z,87.19
2023-02-17T09:47:08.165Z,87.54
2023-02-17T09:49:15.132Z,87.28
2023-02-17T09:51:26.977Z,87.38
2023-02-17T09:53:36.924Z,87.18
2023-02-17T09:55:41.396Z,86.77
2023-02-17T09:57:51.579Z,87.82
2023-02-17T09:59:58.630Z,87.96
2023-02-17T10:02:05.071Z,87.11
2023-02-17T10:04:12.511Z,87.15
2023-02-17T10:06:16.067Z,87.60
2023-02-17T10:08:22.684Z,87.56
2023-02-17T10:10:31.536Z,87.43
2023-02-17T10:12:38.578Z,87.41
2023-02-17T10:14:44.801Z,87.77
2023-02-17T10:16:51.433Z,87.91
2023-02-17T10:19:00.252Z,88.03
2023-02-17T10:21:05.051Z,87.76
2023-02-17T10:23:13.368Z,88.04
2023-02-17T10:25:17.901Z,87.88
2023-02-17T10:27:40.398Z,88.01
2023-02-17T10:29:55.910Z,87.95
2023-02-17T10:32:17.712Z,88.60
2023-02-17T10:34:33.172Z,88.58
2023-02-17T10:36:48.681Z,87.83
2023-02-17T10:38:52.670Z,88.40
2023-02-17T10:40:56.152Z,88.69
2023-02-17T10:43:02.888Z,88.37
2023-02-17T10:45:11.075Z,87.84
2023-02-17T10:47:12.737Z,87.93
2023-02-17T10:49:22.002Z,87.91
2023-02-17T10:51:26.644Z,87.81
2023-02-17T10:53:32.755Z,88.25
2023-02-17T10:55:39.243Z,88.36
2023-02-17T10:57:43.070Z,88.21
2023-02-17T10:59:47.805Z,88.43
2023-02-17T11:01:49.551Z,88.15
2023-02-17T11:04:00.222Z,87.93
2023-02-17T11:06:03.952Z,88.25
2023-02-17T11:08:15.609Z,88.56
2023-02-17T11:10:21.614Z,88.38
2023-02-17T11:12:29.540Z,88.25
2023-02-17T11:14:33.483Z,87.87
2023-02-17T11:16:39.325Z,87.96
2023-02-17T11:18:46.841Z,88.15
2023-02-17T11:20:48.546Z,87.90
2023-02-17T11:23:01.500Z,88.37
2023-02-17T11:25:06.642Z,88.17
2023-02-17T11:27:25.577Z,88.14
2023-02-17T11:29:28.295Z,88.00
2023-02-17T11:31:31.376Z,88.18
2023-02-17T11:33:37.115Z,87.61
2023-02-17T11:35:53.259Z,87.86
2023-02-17T11:38:01.773Z,87.94
2023-02-17T11:40:25.343Z,88.14
2023-02-17T11:42:30.190Z,87.54
2023-02-17T11:44:31.769Z,87.66
2023-02-17T11:46:38.940Z,87.88
2023-02-17T11:49:07.807Z,87.32
2023-02-17T11:51:14.812Z,88.04
2023-02-17T11:53:28.034Z,88.48
2023-02-17T11:55:39.894Z,87.96
2023-02-17T11:57:45.649Z,87.84
2023-02-17T12:00:00.991Z,88.14
2023-02-17T12:02:15.057Z,88.62
2023-02-17T12:04:29.623Z,88.89
2023-02-17T12:06:44.332Z,88.33
2023-02-17T12:09:01.274Z,88.31
2023-02-17T12:11:15.763Z,88.59
2023-02-17T12:13:31.410Z,88.49
2023-02-17T12:15:49.644Z,88.68
2023-02-17T12:17:59.701Z,88.84
2023-02-17T12:20:15.301Z,89.07
2023-02-17T12:22:19.317Z,89.18
2023-02-17T12:24:41.101Z,89.57
2023-02-17T12:26:47.361Z,89.65
2023-02-17T12:29:00.255Z,89.46
2023-02-17T12:31:08.529Z,89.57
2023-02-17T12:33:27.790Z,89.22
2023-02-17T12:35:40.803Z,88.42
2023-02-17T12:37:49.272Z,89.04
2023-02-17T12:39:55.070Z,89.67
2023-02-17T12:42:02.221Z,89.94
2023-02-17T12:44:08.269Z,89.87
2023-02-17T12:46:14.985Z,89.15
2023-02-17T12:48:25.995Z,89.29
2023-02-17T12:50:32.621Z,89.35
2023-02-17T12:52:40.966Z,89.27
2023-02-17T12:54:48.393Z,89.52
2023-02-17T12:56:59.845Z,89.35
2023-02-17T12:59:11.025Z,89.97
2023-02-17T13:01:17.165Z,89.94
2023-02-17T13:03:19.037Z,89.57
2023-02-17T13:05:27.664Z,89.84
2023-02-17T13:07:43.204Z,89.58
2023-02-17T13:09:46.964Z,89.65
2023-02-17T13:11:48.640Z,89.44
2023-02-17T13:13:50.632Z,89.38
2023-02-17T13:16:02.948Z,89.60
2023-02-17T13:18:06.799Z,89.77
2023-02-17T13:20:29.100Z,89.11
2023-02-17T13:22:30.655Z,89.55
2023-02-17T13:24:36.269Z,89.75
2023-02-17T13:26:39.528Z,89.53
2023-02-17T13:28:41.788Z,89.47
2023-02-17T13:30:45.109Z,89.40
2023-02-17T13:32:47.071Z,89.78
2023-02-17T13:35:00.531Z,89.79
2023-02-17T13:37:16.042Z,89.88
2023-02-17T13:39:33.231Z,89.82
2023-02-17T13:41:45.779Z,90.11
2023-02-17T13:43:47.509Z,89.63
2023-02-17T13:45:53.538Z,89.78
2023-02-17T13:47:57.886Z,89.71
2023-02-17T13:49:59.594Z,89.37
2023-02-17T13:52:16.299Z,89.69
2023-02-17T13:54:21.172Z,89.78
2023-02-17T13:56:29.344Z,89.43
2023-02-17T13:58:36.402Z,89.66
2023-02-17T14:00:39.121Z,89.32
2023-02-17T14:02:48.704Z,89.56
2023-02-17T14:04:50.377Z,89.37
2023-02-17T14:06:52.775Z,89.14
2023-02-17T14:08:54.510Z,89.10
2023-02-17T14:10:57.203Z,89.03
2023-02-17T14:13:00.132Z,88.77
2023-02-17T14:15:03.302Z,88.90
2023-02-17T14:17:06.932Z,88.74
2023-02-17T14:19:10.891Z,89.14
2023-02-17T14:21:25.019Z,89.34
2023-02-17T14:23:26.723Z,88.56
2023-02-17T14:25:30.020Z,88.90
2023-02-17T14:27:41.857Z,88.45
2023-02-17T14:29:45.563Z,88.63
2023-02-17T14:31:51.905Z,88.59
2023-02-17T14:33:59.190Z,88.51
2023-02-17T14:36:03.865Z,88.01
2023-02-17T14:38:19.149Z,88.35
2023-02-17T14:40:23.670Z,88.34
2023-02-17T14:42:25.311Z,87.71
2023-02-17T14:44:26.945Z,88.05
2023-02-17T14:46:28.494Z,87.73
2023-02-17T14:48:31.562Z,87.44
2023-02-17T14:50:33.544Z,87.53
2023-02-17T14:52:41.690Z,87.64
2023-02-17T14:54:43.527Z,87.37
2023-02-17T14:56:49.739Z,87.13
2023-02-17T14:58:51.485Z,86.90
2023-02-17T15:00:52.975Z,86.85
2023-02-17T15:02:54.552Z,87.08
2023-02-17T15:04:57.746Z,87.36
2023-02-17T15:06:59.304Z,87.11
2023-02-17T15:09:01.206Z,87.21
2023-02-17T15:11:03.284Z,86.96
2023-02-17T15:13:04.922Z,86.86
2023-02-17T15:15:07.228Z,86.86
2023-02-17T15:17:09.196Z,86.61
2023-02-17T15:19:11.083Z,86.45
2023-02-17T15:21:25.957Z,85.83
2023-02-17T15:23:31.934Z,85.08
2023-02-17T15:25:34.710Z,84.51
2023-02-17T15:27:36.242Z,83.82
2023-02-17T15:29:38.089Z,83.48
2023-02-17T15:31:40.032Z,82.43
2023-02-17T15:33:41.929Z,81.46
2023-02-17T15:35:43.453Z,80.56
2023-02-17T15:37:47.112Z,80.03
2023-02-17T15:39:48.730Z,78.57
2023-02-17T15:41:53.788Z,78.92
2023-02-17T15:43:57.308Z,78.25
2023-02-17T15:45:59.179Z,77.69
2023-02-17T15:48:04.478Z,77.16
2023-02-17T15:50:12.084Z,76.63
2023-02-17T15:52:14.598Z,75.20
2023-02-17T15:54:17.537Z,75.34
2023-02-17T15:56:21.508Z,73.01
2023-02-17T15:58:23.569Z,71.59
2023-02-17T16:00:27.430Z,70.92
2023-02-17T16:02:29.422Z,70.53
2023-02-17T16:04:31.095Z,70.09
2023-02-17T16:06:32.687Z,70.65
2023-02-17T16:08:34.256Z,69.68
2023-02-17T16:10:38.292Z,70.02
2023-02-17T16:12:40.577Z,69.99
2023-02-17T16:14:42.642Z,69.42
2023-02-17T16:16:44.270Z,68.98
2023-02-17T16:18:47.105Z,69.14
2023-02-17T16:20:50.194Z,68.73
2023-02-17T16:22:52.904Z,69.07
2023-02-17T16:24:54.515Z,68.13
2023-02-17T16:26:57.756Z,67.25
2023-02-17T16:29:00.193Z,68.36
2023-02-17T16:31:01.775Z,68.32
2023-02-17T16:33:04.205Z,68.40
2023-02-17T16:35:06.562Z,68.43
2023-02-17T16:37:13.714Z,68.62
2023-02-17T16:39:17.596Z,67.73
2023-02-17T16:41:20.461Z,68.17
2023-02-17T16:43:24.969Z,68.25
2023-02-17T16:45:30.348Z,63.29
2023-02-17T16:47:32.005Z,63.24
2023-02-17T16:49:37.935Z,62.50
2023-02-17T16:51:39.454Z,61.67
2023-02-17T16:53:41.072Z,63.21
2023-02-17T16:55:43.267Z,63.00
2023-02-17T16:57:46.130Z,62.96
2023-02-17T16:59:49.524Z,62.76
2023-02-17T17:01:52.296Z,62.41
2023-02-17T17:03:53.906Z,62.86
2023-02-17T17:05:55.705Z,63.54
2023-02-17T17:07:57.777Z,62.20
2023-02-17T17:10:15.472Z,62.59
2023-02-17T17:12:19.350Z,61.99
2023-02-17T17:14:21.882Z,62.46
2023-02-17T17:16:28.420Z,62.45
2023-02-17T17:18:30.017Z,62.61
2023-02-17T17:20:33.800Z,61.75
2023-02-17T17:22:35.563Z,60.93
2023-02-17T17:24:37.393Z,61.22
2023-02-17T17:26:41.742Z,60.54
2023-02-17T17:28:43.406Z,60.89
2023-02-17T17:30:46.040Z,60.55
2023-02-17T17:35:01.884Z,60.35
2023-02-17T17:37:04.727Z,59.31
2023-02-17T17:39:09.367Z,59.92
2023-02-17T17:41:13.189Z,59.00
2023-02-17T17:43:15.534Z,59.19
2023-02-17T17:45:17.809Z,59.91
2023-02-17T17:47:29.338Z,58.46
2023-02-17T17:49:31.979Z,59.19
2023-02-17T17:51:33.733Z,58.35
2023-02-17T17:53:36.624Z,58.94
2023-02-17T17:55:38.148Z,58.81
2023-02-17T17:57:40.315Z,59.17
2023-02-17T17:59:41.880Z,59.09
2023-02-17T18:01:45.767Z,58.99
2023-02-17T18:03:48.406Z,58.90
2023-02-17T18:05:49.972Z,59.45
2023-02-17T18:07:52.096Z,59.64
2023-02-17T18:09:55.371Z,59.61
2023-02-17T18:11:59.124Z,58.78
2023-02-17T18:14:04.132Z,59.10
2023-02-17T18:16:06.531Z,59.04
2023-02-17T18:18:10.649Z,59.13
2023-02-17T18:20:13.214Z,59.37
2023-02-17T18:22:15.196Z,59.25
2023-02-17T18:24:17.058Z,58.79
2023-02-17T18:26:20.155Z,59.53
2023-02-17T18:28:21.933Z,58.89
2023-02-17T18:30:24.124Z,58.53
2023-02-17T18:32:25.951Z,58.55
2023-02-17T18:34:27.538Z,58.67
2023-02-17T18:36:29.299Z,58.64
2023-02-17T18:38:30.870Z,59.27
2023-02-17T18:40:33.007Z,58.65
2023-02-17T18:42:35.944Z,58.71
2023-02-17T18:44:37.546Z,58.92
2023-02-17T18:46:39.905Z,58.54
2023-02-17T18:48:42.487Z,58.87
2023-02-17T18:50:44.106Z,58.69
2023-02-17T18:52:45.714Z,59.17
2023-02-17T18:54:47.537Z,59.11
2023-02-17T18:56:49.304Z,58.67
2023-02-17T18:58:53.497Z,58.72
2023-02-17T19:00:55.408Z,59.25
2023-02-17T19:02:56.932Z,58.83
2023-02-17T19:04:58.716Z,59.10
2023-02-17T19:07:00.637Z,58.67
2023-02-17T19:09:03.520Z,58.82
2023-02-17T19:11:05.483Z,59.34
2023-02-17T19:13:07.110Z,58.86
2023-02-17T19:15:10.695Z,59.10
2023-02-17T19:17:12.766Z,59.61
2023-02-17T19:19:14.831Z,59.29
2023-02-17T19:21:16.581Z,59.70
2023-02-17T19:23:18.779Z,59.47
2023-02-17T19:25:20.330Z,59.27
2023-02-17T19:27:22.079Z,59.66
2023-02-17T19:29:23.862Z,59.53
2023-02-17T19:31:26.997Z,59.17
2023-02-17T19:33:28.840Z,59.72
2023-02-17T19:35:30.643Z,59.84
2023-02-17T19:37:32.156Z,59.59
2023-02-17T19:39:35.405Z,59.81
2023-02-17T19:41:36.926Z,58.84
2023-02-17T19:43:38.974Z,59.76
2023-02-17T19:45:40.631Z,59.56
2023-02-17T19:47:43.765Z,59.34
2023-02-17T19:49:45.333Z,59.16
2023-02-17T19:51:47.064Z,59.29
2023-02-17T19:53:48.783Z,59.24
2023-02-17T19:55:50.702Z,59.51
2023-02-17T19:57:52.974Z,59.01
2023-02-17T19:59:54.515Z,59.00
2023-02-17T20:01:56.608Z,59.34
2023-02-17T20:04:03.645Z,59.19
2023-02-17T20:06:07.885Z,58.25
2023-02-17T20:08:09.565Z,58.11
2023-02-17T20:10:12.822Z,58.25
2023-02-17T20:12:14.407Z,58.15
2023-02-17T20:14:16.071Z,58.74
2023-02-17T20:16:18.745Z,58.03
2023-02-17T20:18:20.323Z,58.18
2023-02-17T20:20:23.279Z,57.81
2023-02-17T20:22:24.812Z,57.66
2023-02-17T20:24:26.672Z,58.32
2023-02-17T20:26:30.949Z,57.17
2023-02-17T20:28:32.898Z,57.85
2023-02-17T20:30:34.796Z,57.42
2023-02-17T20:32:36.471Z,57.71
2023-02-17T20:34:39.393Z,57.52
2023-02-17T20:36:42.377Z,58.12
2023-02-17T20:38:44.621Z,57.61
2023-02-17T20:40:46.479Z,57.02
2023-02-17T20:42:48.038Z,57.35
2023-02-17T20:44:49.658Z,56.58
2023-02-17T20:46:51.537Z,57.05
2023-02-17T20:48:54.390Z,57.24
2023-02-17T20:50:57.246Z,56.61
2023-02-17T20:53:00.220Z,57.00
2023-02-17T20:55:02.153Z,57.34
2023-02-17T20:57:03.944Z,57.35
2023-02-17T20:59:08.624Z,57.48
2023-02-17T21:01:10.513Z,57.38
2023-02-17T21:03:12.148Z,57.73
2023-02-17T21:05:15.833Z,57.96
2023-02-17T21:07:19.868Z,58.58
2023-02-17T21:09:22.821Z,58.99
2023-02-17T21:11:24.921Z,58.53
2023-02-17T21:13:27.964Z,59.28
2023-02-17T21:15:30.656Z,59.21
2023-02-17T21:17:32.207Z,59.83
2023-02-17T21:19:33.735Z,59.48
2023-02-17T21:21:35.791Z,59.65
2023-02-17T21:23:37.560Z,59.11
2023-02-17T21:25:40.521Z,59.64
2023-02-17T21:27:42.502Z,58.47
2023-02-17T21:29:44.023Z,58.91
2023-02-17T21:31:45.671Z,59.60
2023-02-17T21:33:47.300Z,59.40
2023-02-17T21:35:49.290Z,59.23
2023-02-17T21:37:51.100Z,59.52
2023-02-17T21:39:52.899Z,58.94
2023-02-17T21:41:55.779Z,59.67
2023-02-17T21:43:57.399Z,59.29
2023-02-17T21:45:58.943Z,59.58
2023-02-17T21:48:00.475Z,59.40
2023-02-17T21:50:02.231Z,59.68
2023-02-17T21:52:03.944Z,59.30
2023-02-17T21:54:06.445Z,59.47
2023-02-17T21:56:08.366Z,59.13
2023-02-17T21:58:11.930Z,59.84
2023-02-17T22:00:15.062Z,59.88
2023-02-17T22:02:16.690Z,60.40
2023-02-17T22:04:18.664Z,59.55
2023-02-17T22:06:22.010Z,60.19
2023-02-17T22:08:23.811Z,60.33
2023-02-17T22:10:25.679Z,59.72
2023-02-17T22:12:28.152Z,60.23
2023-02-17T22:14:31.181Z,59.71
2023-02-17T22:16:36.316Z,59.99
2023-02-17T22:18:38.744Z,59.82
2023-02-17T22:20:43.251Z,59.11
2023-02-17T22:22:44.913Z,59.00
2023-02-17T22:24:46.524Z,58.99
2023-02-17T22:26:49.510Z,59.01
2023-02-17T22:28:51.726Z,58.55
2023-02-17T22:30:54.628Z,58.62
2023-02-17T22:32:56.201Z,58.81
2023-02-17T22:34:58.124Z,59.48
2023-02-17T22:36:59.810Z,59.10
2023-02-17T22:39:03.543Z,59.57
2023-02-17T22:41:06.218Z,59.57
2023-02-17T22:43:07.800Z,59.84
2023-02-17T22:45:09.642Z,59.98
2023-02-17T22:47:12.553Z,59.95
2023-02-17T22:49:14.430Z,60.37
2023-02-17T22:51:19.400Z,60.72
2023-02-17T22:53:21.522Z,59.92
2023-02-17T22:55:23.383Z,59.69
2023-02-17T22:57:25.103Z,60.12
2023-02-17T22:59:27.366Z,59.64
2023-02-17T23:01:31.866Z,59.48
2023-02-17T23:03:35.345Z,59.52
2023-02-17T23:05:37.240Z,58.99
2023-02-17T23:07:38.832Z,59.53
2023-02-17T23:09:40.745Z,59.27
2023-02-17T23:11:42.364Z,59.30
2023-02-17T23:13:44.701Z,59.55
2023-02-17T23:15:46.551Z,59.06
2023-02-17T23:17:48.079Z,58.94
2023-02-17T23:19:51.003Z,58.91
2023-02-17T23:21:55.121Z,59.34
2023-02-17T23:23:56.653Z,58.53
2023-02-17T23:25:58.362Z,58.97
2023-02-17T23:28:00.898Z,59.10
2023-02-17T23:30:02.439Z,59.25
2023-02-17T23:32:05.055Z,58.75
2023-02-17T23:34:07.600Z,59.38
2023-02-17T23:36:11.298Z,59.18
2023-02-17T23:38:14.140Z,59.50
2023-02-17T23:40:16.010Z,60.07
2023-02-17T23:42:17.540Z,59.67
2023-02-17T23:44:19.062Z,59.35
2023-02-17T23:46:21.310Z,59.93
2023-02-17T23:48:23.450Z,59.50
2023-02-17T23:50:25.763Z,59.51
2023-02-17T23:52:28.770Z,60.02
2023-02-17T23:54:30.418Z,60.22
2023-02-17T23:56:34.138Z,60.16
2023-02-17T23:58:35.678Z,60.36
